Terminal Aerodrome Forecast
Issued by NWS

Home | Current Version | Previous Version | Graphics & Text | Print | Product List | Glossary On
Versions: 1 2 3 4 5 6 7 8 9 10 11 12 13 14 15 16 17
000
FTUS43 KTOP 200700 AAA
TAFFOE
TAF AMD
KFOE 200758Z 2008/2106 04013KT 4SM RA BR SCT008 OVC025
      TEMPO 2008/2012 BKN008
     FM201200 04012KT 5SM -DZ BR OVC008=

USA.gov is the U.S. government's official web portal to all federal, state and local government web resources and services.